createdAt,value
2023-02-11T00:01:32.865Z,58.92
2023-02-11T00:06:38.480Z,57.05
2023-02-11T00:11:42.918Z,55.65
2023-02-11T00:16:48.298Z,56.03
2023-02-11T00:21:52.439Z,62.45
2023-02-11T00:26:56.128Z,54.15
2023-02-11T00:32:05.303Z,55.60
2023-02-11T00:37:12.197Z,59.22
2023-02-11T00:42:18.948Z,60.30
2023-02-11T00:47:26.350Z,56.28
2023-02-11T00:52:30.267Z,54.38
2023-02-11T00:57:34.655Z,54.45
2023-02-11T01:02:45.763Z,53.63
2023-02-11T01:07:49.838Z,54.40
2023-02-11T01:12:53.818Z,55.05
2023-02-11T01:17:59.572Z,52.85
2023-02-11T01:23:04.591Z,49.88
2023-02-11T01:28:09.573Z,51.42
2023-02-11T01:33:15.059Z,50.35
2023-02-11T01:38:20.648Z,52.55
2023-02-11T01:43:24.804Z,51.28
2023-02-11T01:48:32.531Z,53.90
2023-02-11T01:53:57.316Z,54.53
2023-02-11T01:59:04.433Z,52.05
2023-02-11T02:04:15.792Z,59.35
2023-02-11T02:09:21.814Z,53.92
2023-02-11T02:14:26.690Z,54.60
2023-02-11T02:20:14.803Z,56.20
2023-02-11T02:25:37.229Z,56.58
2023-02-11T02:30:55.578Z,56.15
2023-02-11T02:36:07.190Z,49.78
2023-02-11T02:41:12.384Z,47.05
2023-02-11T02:46:18.122Z,55.63
2023-02-11T02:52:00.177Z,50.70
2023-02-11T02:57:10.393Z,51.90
2023-02-11T03:02:20.228Z,51.13
2023-02-11T03:07:32.164Z,54.55
2023-02-11T03:12:37.606Z,46.40
2023-02-11T03:17:42.284Z,49.33
2023-02-11T03:22:49.334Z,52.03
2023-02-11T03:27:56.166Z,51.10
2023-02-11T03:33:03.003Z,49.42
2023-02-11T03:38:11.276Z,59.45
2023-02-11T03:43:20.007Z,49.47
2023-02-11T03:48:25.141Z,46.53
2023-02-11T03:53:31.878Z,50.80
2023-02-11T03:58:35.840Z,47.38
2023-02-11T04:03:39.766Z,46.00
2023-02-11T04:08:46.794Z,44.13
2023-02-11T04:13:52.622Z,44.47
2023-02-11T04:18:59.543Z,45.10
2023-02-11T04:24:05.169Z,48.30
2023-02-11T04:29:09.413Z,47.60
2023-02-11T04:34:14.110Z,45.75
2023-02-11T04:39:19.804Z,42.00
2023-02-11T04:44:24.369Z,45.67
2023-02-11T04:49:29.771Z,45.90
2023-02-11T04:54:35.178Z,48.10
2023-02-11T04:59:40.238Z,48.80
2023-02-11T05:04:44.677Z,48.03
2023-02-11T05:09:54.261Z,49.22
2023-02-11T05:15:00.875Z,49.28
2023-02-11T05:20:12.490Z,51.08
2023-02-11T05:25:20.447Z,49.33
2023-02-11T05:30:24.603Z,51.60
2023-02-11T05:35:29.818Z,41.35
2023-02-11T05:40:34.968Z,44.38
2023-02-11T05:45:39.624Z,45.53
2023-02-11T05:50:50.464Z,48.80
2023-02-11T05:56:00.756Z,48.00
2023-02-11T06:01:05.816Z,49.00
2023-02-11T06:06:12.011Z,43.38
2023-02-11T06:11:19.467Z,43.92
2023-02-11T06:16:25.996Z,44.63
2023-02-11T06:21:43.319Z,43.88
2023-02-11T06:26:51.017Z,46.40
2023-02-11T06:31:56.958Z,53.00
2023-02-11T06:37:06.383Z,55.13
2023-02-11T06:42:12.275Z,52.20
2023-02-11T06:47:15.330Z,46.28
2023-02-11T06:52:19.010Z,48.17
2023-02-11T06:57:23.851Z,55.22
2023-02-11T07:02:29.400Z,47.97
2023-02-11T07:07:34.354Z,51.10
2023-02-11T07:12:39.448Z,52.08
2023-02-11T07:17:43.233Z,49.25
2023-02-11T07:22:46.853Z,52.75
2023-02-11T07:27:52.610Z,50.08
2023-02-11T07:32:55.752Z,47.95
2023-02-11T07:37:59.355Z,50.63
2023-02-11T07:43:04.117Z,46.35
2023-02-11T07:48:07.978Z,49.33
2023-02-11T07:53:12.087Z,52.40
2023-02-11T07:58:19.361Z,51.15
2023-02-11T08:03:22.995Z,45.85
2023-02-11T08:08:28.595Z,49.20
2023-02-11T08:13:33.776Z,51.15
2023-02-11T08:18:37.700Z,51.80
2023-02-11T08:23:41.630Z,49.25
2023-02-11T08:28:47.239Z,47.38
2023-02-11T08:33:50.314Z,47.08
2023-02-11T08:39:08.535Z,43.75
2023-02-11T08:44:13.693Z,51.85
2023-02-11T08:49:17.114Z,48.05
2023-02-11T08:54:20.567Z,48.65
2023-02-11T08:59:27.053Z,49.17
2023-02-11T09:04:31.026Z,47.22
2023-02-11T09:09:34.661Z,43.13
2023-02-11T09:14:39.661Z,49.03
2023-02-11T09:19:42.932Z,45.60
2023-02-11T09:24:46.614Z,46.65
2023-02-11T09:29:51.847Z,44.47
2023-02-11T09:34:56.050Z,45.75
2023-02-11T09:39:59.422Z,40.05
2023-02-11T09:45:04.963Z,38.85
2023-02-11T09:50:12.065Z,47.17
2023-02-11T09:55:20.105Z,33.30
2023-02-11T10:00:27.152Z,43.00
2023-02-11T10:05:43.882Z,44.13
2023-02-11T10:10:52.829Z,45.38
2023-02-11T10:16:00.636Z,40.38
2023-02-11T10:21:11.119Z,36.83
2023-02-11T10:26:16.052Z,33.75
2023-02-11T10:31:23.204Z,31.33
2023-02-11T10:36:29.493Z,36.10
2023-02-11T10:41:36.400Z,27.95
2023-02-11T10:46:41.435Z,34.33
2023-02-11T10:51:45.022Z,33.60
2023-02-11T10:56:50.877Z,34.13
2023-02-11T11:01:59.617Z,31.58
2023-02-11T11:07:14.042Z,41.88
2023-02-11T11:12:28.801Z,37.17
2023-02-11T11:17:34.315Z,37.83
2023-02-11T11:22:39.082Z,35.50
2023-02-11T11:27:44.448Z,29.52
2023-02-11T11:32:49.055Z,31.63
2023-02-11T11:37:55.389Z,35.50
2023-02-11T11:43:07.438Z,36.83
2023-02-11T11:48:15.022Z,34.13
2023-02-11T11:53:21.946Z,38.42
2023-02-11T11:58:26.237Z,32.67
2023-02-11T12:03:45.137Z,36.30
2023-02-11T12:08:56.051Z,41.53
2023-02-11T12:14:05.486Z,37.25
2023-02-11T12:19:35.196Z,36.85
2023-02-11T12:24:54.257Z,25.98
2023-02-11T12:30:03.832Z,32.63
2023-02-11T12:35:24.029Z,33.17
2023-02-11T12:40:32.399Z,28.80
2023-02-11T12:45:46.726Z,32.55
2023-02-11T12:50:57.981Z,35.70
2023-02-11T12:56:04.611Z,31.73
2023-02-11T13:01:09.941Z,36.10
2023-02-11T13:06:16.302Z,33.72
2023-02-11T13:11:21.545Z,35.83
2023-02-11T13:16:32.551Z,31.42
2023-02-11T13:21:44.156Z,39.70
2023-02-11T13:26:50.624Z,33.72
2023-02-11T13:31:57.586Z,29.90
2023-02-11T13:37:02.908Z,31.98
2023-02-11T13:42:06.386Z,33.95
2023-02-11T13:47:16.028Z,36.97
2023-02-11T13:52:26.904Z,35.05
2023-02-11T13:57:39.306Z,29.05
2023-02-11T14:03:06.104Z,37.25
2023-02-11T14:08:37.577Z,34.78
2023-02-11T14:14:16.475Z,37.15
2023-02-11T14:19:32.663Z,35.30
2023-02-11T14:24:50.123Z,33.92
2023-02-11T14:30:43.003Z,38.30
2023-02-11T14:35:55.628Z,35.97
2023-02-11T14:41:03.696Z,36.70
2023-02-11T14:46:07.813Z,35.75
2023-02-11T14:51:12.416Z,32.25
2023-02-11T14:56:22.745Z,39.15
2023-02-11T15:01:29.365Z,37.63
2023-02-11T15:06:34.612Z,37.15
2023-02-11T15:11:42.544Z,34.38
2023-02-11T15:16:46.423Z,40.17
2023-02-11T15:21:50.890Z,38.50
2023-02-11T15:27:00.229Z,32.60
2023-02-11T15:32:08.244Z,32.55
2023-02-11T15:37:14.111Z,36.03
2023-02-11T15:42:20.502Z,35.53
2023-02-11T15:47:24.350Z,35.38
2023-02-11T15:52:29.020Z,37.10
2023-02-11T15:57:33.929Z,36.40
2023-02-11T16:02:47.082Z,35.75
2023-02-11T16:07:51.832Z,44.25
2023-02-11T16:13:00.719Z,40.25
2023-02-11T16:18:04.726Z,44.13
2023-02-11T16:23:08.366Z,47.65
2023-02-11T16:28:15.057Z,41.42
2023-02-11T16:33:19.289Z,50.20
2023-02-11T16:38:26.128Z,51.22
2023-02-11T16:43:31.194Z,53.50
2023-02-11T16:48:35.164Z,50.75
2023-02-11T16:53:38.594Z,45.20
2023-02-11T16:58:43.481Z,49.00
2023-02-11T17:03:46.692Z,45.75
2023-02-11T17:08:50.414Z,54.30
2023-02-11T17:13:56.157Z,59.67
2023-02-11T17:19:00.632Z,57.30
2023-02-11T17:24:08.930Z,49.40
2023-02-11T17:29:17.339Z,58.03
2023-02-11T17:34:22.487Z,53.63
2023-02-11T17:39:33.780Z,49.25
2023-02-11T17:44:38.876Z,54.05
2023-02-11T17:49:42.593Z,51.25
2023-02-11T17:54:47.056Z,54.67
2023-02-11T17:59:52.564Z,51.17
2023-02-11T18:04:57.726Z,53.60
2023-02-11T18:10:02.168Z,59.13
2023-02-11T18:15:10.637Z,56.92
2023-02-11T18:20:15.038Z,58.47
2023-02-11T18:25:18.867Z,56.35
2023-02-11T18:30:24.368Z,58.40
2023-02-11T18:35:36.938Z,53.95
2023-02-11T18:40:48.176Z,51.53
2023-02-11T18:45:55.186Z,46.58
2023-02-11T18:50:58.994Z,54.40
2023-02-11T18:56:02.903Z,53.38
2023-02-11T19:01:15.240Z,45.80
2023-02-11T19:06:20.028Z,50.92
2023-02-11T19:11:43.703Z,54.05
2023-02-11T19:16:51.314Z,53.00
2023-02-11T19:21:58.891Z,46.28
2023-02-11T19:27:04.285Z,49.08
2023-02-11T19:32:09.721Z,48.33
2023-02-11T19:37:13.953Z,48.15
2023-02-11T19:42:17.324Z,53.55
2023-02-11T19:47:27.857Z,50.40
2023-02-11T19:52:31.584Z,55.70
2023-02-11T19:57:35.031Z,52.03
2023-02-11T20:02:41.167Z,54.10
2023-02-11T20:07:46.582Z,48.17
2023-02-11T20:12:50.327Z,49.58
2023-02-11T20:17:56.573Z,45.35
2023-02-11T20:22:59.980Z,55.22
2023-02-11T20:28:03.842Z,54.95
2023-02-11T20:33:09.827Z,54.35
2023-02-11T20:38:16.982Z,50.28
2023-02-11T20:43:21.172Z,47.60
2023-02-11T20:48:26.319Z,51.80
2023-02-11T20:53:30.452Z,51.30
2023-02-11T20:58:34.332Z,53.45
2023-02-11T21:03:40.598Z,47.55
2023-02-11T21:08:44.385Z,56.80
2023-02-11T21:13:48.731Z,48.22
2023-02-11T21:18:53.996Z,55.95
2023-02-11T21:23:58.678Z,52.10
2023-02-11T21:29:02.932Z,47.75
2023-02-11T21:34:10.573Z,50.90
2023-02-11T21:39:16.280Z,53.70
2023-02-11T21:44:20.194Z,49.13
2023-02-11T21:49:25.953Z,51.60
2023-02-11T21:54:32.132Z,54.15
2023-02-11T21:59:35.697Z,60.40
2023-02-11T22:04:41.536Z,47.70
2023-02-11T22:09:45.328Z,54.47
2023-02-11T22:14:48.944Z,52.38
2023-02-11T22:19:54.117Z,51.00
2023-02-11T22:25:00.305Z,54.28
2023-02-11T22:30:07.500Z,56.60
2023-02-11T22:35:13.178Z,44.53
2023-02-11T22:40:18.467Z,43.55
2023-02-11T22:45:36.687Z,55.33
2023-02-11T22:50:44.659Z,54.47
2023-02-11T22:55:48.447Z,50.95
2023-02-11T23:00:52.806Z,55.95
2023-02-11T23:06:06.258Z,58.85
2023-02-11T23:11:13.126Z,54.30
2023-02-11T23:16:18.039Z,49.38
2023-02-11T23:21:24.005Z,49.78
2023-02-11T23:26:27.415Z,50.03
2023-02-11T23:31:34.069Z,49.55
2023-02-11T23:36:39.192Z,60.40
2023-02-11T23:41:43.782Z,52.33
2023-02-11T23:46:47.488Z,51.45
2023-02-11T23:51:53.659Z,54.72
2023-02-11T23:56:57.786Z,51.92
